LEZG/ZAZ METAR and TAF weather

Enter ICAO airport designator
Station Type Date Time Source
LEZG METAR 2019/11/18 12:00 UTC NOAA

LEZG 181200Z 29020KT 9999 FEW050 11/03 Q1013


Station Type Date Time Source
LEZG Decoded METAR 2019/11/18 12:00 UTC NOAA

Zaragoza / Aeropuerto, Spain (LEZG) 41-40N 001-01W 258M
Nov 18, 2019 - 07:00 AM EST / 2019.11.18 1200 UTC
Wind: from the WNW (290 degrees) at 23 MPH (20 KT):0
Visibility: greater than 7 mile(s):0
Sky conditions: mostly clear
Temperature: 51 F (11 C)
Dew Point: 37 F (3 C)
Relative Humidity: 57%
Pressure (altimeter): 29.91 in. Hg (1013 hPa)
ob: LEZG 181200Z 29020KT 9999 FEW050 11/03 Q1013
cycle: 12

Station Type Date Time Source
LEZG TAF 2019/11/18 12:27 UTC NOAA

TAF LEZG 181100Z 1812/1912 30009KT 9999 FEW040 TX11/1813Z TN04/1906Z
TEMPO 1812/1818 30020G32KT
BECMG 1901/1903 27009KT

Example: see airport list